createdAt,value
2017-04-22T00:00:10.036Z,72.70
2017-04-22T00:01:09.778Z,72.30
2017-04-22T00:02:10.373Z,72.70
2017-04-22T00:03:10.160Z,71.90
2017-04-22T00:04:09.888Z,72.10
2017-04-22T00:05:09.609Z,72.10
2017-04-22T00:06:09.360Z,71.70
2017-04-22T00:07:09.149Z,72.30
2017-04-22T00:08:09.008Z,72.60
2017-04-22T00:09:09.537Z,72.80
2017-04-22T00:10:09.301Z,73.40
2017-04-22T00:11:08.999Z,72.80
2017-04-22T00:12:08.742Z,72.40
2017-04-22T00:13:08.461Z,73.40
2017-04-22T00:14:08.407Z,72.90
2017-04-22T00:15:08.926Z,72.90
2017-04-22T00:16:08.633Z,72.50
2017-04-22T00:17:08.354Z,72.70
2017-04-22T00:18:08.810Z,73.00
2017-04-22T00:19:08.554Z,73.40
2017-04-22T00:20:08.259Z,73.70
2017-04-22T00:21:07.952Z,73.60
2017-04-22T00:22:08.395Z,75.20
2017-04-22T00:23:08.142Z,73.70
2017-04-22T00:24:07.884Z,72.90
2017-04-22T00:25:08.327Z,72.20
2017-04-22T00:26:08.043Z,71.90
2017-04-22T00:27:08.163Z,72.10
2017-04-22T00:28:08.042Z,72.10
2017-04-22T00:29:07.782Z,72.00
2017-04-22T00:30:07.636Z,71.80
2017-04-22T00:31:07.398Z,72.50
2017-04-22T00:32:07.168Z,71.80
2017-04-22T00:33:06.868Z,72.60
2017-04-22T00:34:06.727Z,71.40
2017-04-22T00:35:07.227Z,71.40
2017-04-22T00:36:07.030Z,70.90
2017-04-22T00:37:06.734Z,70.80
2017-04-22T00:38:06.431Z,70.70
2017-04-22T00:39:06.159Z,70.20
2017-04-22T00:40:05.897Z,70.50
2017-04-22T00:41:05.769Z,69.90
2017-04-22T00:42:05.511Z,70.30
2017-04-22T00:43:05.257Z,70.50
2017-04-22T00:44:05.808Z,70.20
2017-04-22T00:45:05.516Z,70.50
2017-04-22T00:46:05.462Z,70.90
2017-04-22T00:47:05.188Z,70.90
2017-04-22T00:48:05.032Z,71.10
2017-04-22T00:49:04.723Z,71.40
2017-04-22T00:50:04.496Z,71.50
2017-04-22T00:51:04.197Z,71.80
2017-04-22T00:52:03.931Z,71.20
2017-04-22T00:53:03.641Z,71.40
2017-04-22T00:54:03.327Z,72.40
2017-04-22T00:55:03.097Z,72.40
2017-04-22T00:56:02.803Z,71.70
2017-04-22T00:57:02.528Z,71.80
2017-04-22T00:58:02.266Z,71.50
2017-04-22T00:59:01.984Z,71.40
2017-04-22T01:00:01.693Z,71.10
2017-04-22T01:01:01.522Z,71.40
2017-04-22T01:02:01.235Z,71.40
2017-04-22T01:03:01.141Z,71.30
2017-04-22T01:04:00.888Z,71.60
2017-04-22T01:05:00.629Z,72.10
2017-04-22T01:06:00.340Z,72.10
2017-04-22T01:07:00.072Z,72.40
2017-04-22T01:08:00.549Z,72.70
2017-04-22T01:09:00.443Z,73.00
2017-04-22T01:10:00.220Z,73.00
2017-04-22T01:11:00.036Z,73.20
2017-04-22T01:11:59.777Z,73.50
2017-04-22T01:12:59.481Z,73.80
2017-04-22T01:13:59.216Z,74.40
2017-04-22T01:14:58.990Z,73.90
2017-04-22T01:15:58.826Z,74.00
2017-04-22T01:16:58.516Z,73.80
2017-04-22T01:17:58.222Z,73.20
2017-04-22T01:18:58.045Z,73.50
2017-04-22T01:19:58.487Z,73.30
2017-04-22T01:20:58.213Z,73.30
2017-04-22T01:21:57.925Z,73.20
2017-04-22T01:22:57.677Z,73.60
2017-04-22T01:23:57.408Z,73.70
2017-04-22T01:24:57.156Z,73.50
2017-04-22T01:25:57.632Z,73.60
2017-04-22T01:26:57.454Z,73.90
2017-04-22T01:27:57.424Z,73.90
2017-04-22T01:28:57.199Z,73.80
2017-04-22T01:29:56.994Z,73.60
2017-04-22T01:30:56.756Z,73.50
2017-04-22T01:31:56.522Z,73.40
2017-04-22T01:32:56.267Z,73.80
2017-04-22T01:33:55.969Z,73.50
2017-04-22T01:34:55.681Z,73.60
2017-04-22T01:35:55.393Z,74.20
2017-04-22T01:36:55.858Z,73.20
2017-04-22T01:37:55.612Z,73.00
2017-04-22T01:38:56.072Z,73.50
2017-04-22T01:39:55.972Z,73.30
2017-04-22T01:40:55.941Z,73.60
2017-04-22T01:41:56.458Z,73.80
2017-04-22T01:42:56.209Z,73.80
2017-04-22T01:43:56.003Z,73.20
2017-04-22T01:44:55.878Z,73.20
2017-04-22T01:45:56.374Z,73.40
2017-04-22T01:46:56.090Z,73.30
2017-04-22T01:47:56.528Z,73.40
2017-04-22T01:48:56.254Z,73.10
2017-04-22T01:49:55.973Z,73.20
2017-04-22T01:50:55.688Z,73.00
2017-04-22T01:51:55.391Z,73.00
2017-04-22T01:52:55.093Z,72.90
2017-04-22T01:53:55.576Z,73.00
2017-04-22T01:54:55.333Z,73.00
2017-04-22T01:55:55.792Z,73.20
2017-04-22T01:56:55.515Z,72.90
2017-04-22T01:57:55.228Z,73.20
2017-04-22T01:58:54.960Z,72.90
2017-04-22T01:59:54.691Z,73.00
2017-04-22T02:00:54.551Z,72.90
2017-04-22T02:01:54.222Z,73.30
2017-04-22T02:02:53.971Z,73.30
2017-04-22T02:03:53.697Z,73.30
2017-04-22T02:04:53.464Z,73.20
2017-04-22T02:05:53.164Z,73.50
2017-04-22T02:06:52.921Z,74.00
2017-04-22T02:07:52.644Z,73.50
2017-04-22T02:08:52.343Z,73.20
2017-04-22T02:09:52.022Z,73.40
2017-04-22T02:10:51.848Z,73.80
2017-04-22T02:11:52.328Z,73.40
2017-04-22T02:12:52.072Z,73.50
2017-04-22T02:13:51.799Z,73.60
2017-04-22T02:14:52.370Z,74.10
2017-04-22T02:15:52.254Z,73.20
2017-04-22T02:16:51.984Z,73.00
2017-04-22T02:17:51.696Z,72.80
2017-04-22T02:18:51.439Z,72.90
2017-04-22T02:19:51.937Z,72.90
2017-04-22T02:20:51.633Z,72.80
2017-04-22T02:21:51.469Z,72.90
2017-04-22T02:22:51.193Z,72.50
2017-04-22T02:23:51.050Z,72.90
2017-04-22T02:24:51.504Z,73.50
2017-04-22T02:25:51.305Z,73.00
2017-04-22T02:26:51.068Z,72.90
2017-04-22T02:27:50.836Z,72.90
2017-04-22T02:28:50.571Z,73.00
2017-04-22T02:29:51.089Z,72.20
2017-04-22T02:30:50.861Z,73.30
2017-04-22T02:31:50.597Z,73.00
2017-04-22T02:32:51.120Z,72.50
2017-04-22T02:33:51.589Z,73.70
2017-04-22T02:34:51.383Z,72.90
2017-04-22T02:35:51.084Z,73.00
2017-04-22T02:36:50.845Z,72.90
2017-04-22T02:37:51.404Z,73.30
2017-04-22T02:38:51.107Z,73.10
2017-04-22T02:39:50.953Z,73.20
2017-04-22T02:40:50.649Z,73.30
2017-04-22T02:41:50.387Z,72.70
2017-04-22T02:42:50.876Z,72.70
2017-04-22T02:43:51.333Z,72.80
2017-04-22T02:44:51.336Z,72.30
2017-04-22T02:45:51.128Z,72.40
2017-04-22T02:46:50.841Z,72.50
2017-04-22T02:47:50.549Z,73.90
2017-04-22T02:48:50.276Z,72.50
2017-04-22T02:49:49.986Z,72.30
2017-04-22T02:50:49.707Z,72.10
2017-04-22T02:51:50.176Z,73.20
2017-04-22T02:52:49.960Z,72.30
2017-04-22T02:53:49.695Z,72.60
2017-04-22T02:54:49.460Z,72.80
2017-04-22T02:55:49.221Z,72.80
2017-04-22T02:56:49.122Z,72.90
2017-04-22T02:57:48.853Z,73.00
2017-04-22T02:58:48.574Z,72.70
2017-04-22T02:59:48.283Z,73.00
2017-04-22T03:00:48.029Z,73.10
2017-04-22T03:01:47.893Z,73.20
2017-04-22T03:02:47.678Z,73.20
2017-04-22T03:03:47.393Z,73.30
2017-04-22T03:04:47.125Z,73.40
2017-04-22T03:05:46.866Z,73.80
2017-04-22T03:06:46.592Z,74.20
2017-04-22T03:07:46.372Z,73.80
2017-04-22T03:08:46.150Z,73.80
2017-04-22T03:09:45.828Z,73.70
2017-04-22T03:10:45.627Z,73.90
2017-04-22T03:11:45.382Z,74.00
2017-04-22T03:12:45.095Z,73.90
2017-04-22T03:13:44.833Z,73.60
2017-04-22T03:14:44.565Z,73.70
2017-04-22T03:15:45.065Z,73.60
2017-04-22T03:16:45.520Z,73.60
2017-04-22T03:17:45.389Z,73.40
2017-04-22T03:18:45.940Z,73.40
2017-04-22T03:19:45.658Z,73.70
2017-04-22T03:20:45.378Z,72.90
2017-04-22T03:21:45.105Z,73.00
2017-04-22T03:22:45.582Z,73.90
2017-04-22T03:23:45.317Z,73.20
2017-04-22T03:24:45.050Z,73.30
2017-04-22T03:25:45.501Z,73.10
2017-04-22T03:26:45.249Z,73.60
2017-04-22T03:27:45.724Z,73.40
2017-04-22T03:28:45.454Z,73.30
2017-04-22T03:29:45.205Z,73.00
2017-04-22T03:30:45.048Z,73.40
2017-04-22T03:31:44.771Z,73.20
2017-04-22T03:32:45.225Z,73.10
2017-04-22T03:33:44.924Z,73.30
2017-04-22T03:34:44.644Z,73.20
2017-04-22T03:35:44.389Z,73.30
2017-04-22T03:36:44.883Z,73.10
2017-04-22T03:37:44.614Z,72.90
2017-04-22T03:38:45.065Z,72.90
2017-04-22T03:39:44.767Z,72.60
2017-04-22T03:40:44.486Z,72.40
2017-04-22T03:41:44.231Z,72.10
2017-04-22T03:42:44.752Z,72.20
2017-04-22T03:43:45.220Z,72.20
2017-04-22T03:44:44.941Z,72.10
2017-04-22T03:45:44.684Z,72.50
2017-04-22T03:46:44.395Z,74.00
2017-04-22T03:47:44.183Z,73.30
2017-04-22T03:48:44.660Z,72.50
2017-04-22T03:49:44.373Z,72.40
2017-04-22T03:50:44.087Z,72.60
2017-04-22T03:51:44.552Z,72.10
2017-04-22T03:52:44.248Z,72.70
2017-04-22T03:53:43.958Z,72.70
2017-04-22T03:54:43.677Z,72.80
2017-04-22T03:55:43.386Z,73.10
2017-04-22T03:56:43.096Z,73.10
2017-04-22T03:57:42.848Z,73.40
2017-04-22T03:58:42.596Z,73.30
2017-04-22T03:59:42.327Z,73.60
2017-04-22T04:00:42.045Z,74.70
2017-04-22T04:01:41.757Z,73.90
2017-04-22T04:02:41.468Z,73.70
2017-04-22T04:03:41.189Z,74.00
2017-04-22T04:04:40.912Z,73.80
2017-04-22T04:05:41.414Z,74.40
2017-04-22T04:06:41.250Z,73.50
2017-04-22T04:07:40.951Z,73.60
2017-04-22T04:08:40.702Z,73.20
2017-04-22T04:09:40.420Z,73.20
2017-04-22T04:10:40.193Z,73.30
2017-04-22T04:11:39.902Z,73.40
2017-04-22T04:12:39.610Z,73.60
2017-04-22T04:14:39.335Z,73.60
2017-04-22T04:15:39.791Z,73.80
2017-04-22T04:16:39.581Z,73.80
2017-04-22T04:17:39.319Z,73.90
2017-04-22T04:18:39.024Z,73.90
2017-04-22T04:19:38.719Z,74.00
2017-04-22T04:20:38.441Z,73.90
2017-04-22T04:21:38.146Z,74.30
2017-04-22T04:22:37.864Z,73.90
2017-04-22T04:23:38.311Z,73.50
2017-04-22T04:24:38.020Z,73.70
2017-04-22T04:25:37.945Z,73.80
2017-04-22T04:26:37.643Z,73.60
2017-04-22T04:27:37.377Z,73.70
2017-04-22T04:28:37.857Z,73.80
2017-04-22T04:29:37.566Z,73.90
2017-04-22T04:30:37.296Z,74.20
2017-04-22T04:31:37.033Z,74.10
2017-04-22T04:32:36.764Z,74.00
2017-04-22T04:33:36.489Z,73.90
2017-04-22T04:34:36.217Z,74.10
2017-04-22T04:35:35.933Z,74.20
2017-04-22T04:36:35.670Z,74.20
2017-04-22T04:37:35.370Z,74.60
2017-04-22T04:38:35.129Z,74.10
2017-04-22T04:39:34.973Z,75.00
2017-04-22T04:40:34.770Z,74.00
2017-04-22T04:41:35.251Z,74.20
2017-04-22T04:42:34.963Z,74.00
2017-04-22T04:43:34.708Z,74.10
2017-04-22T04:44:34.444Z,74.20
2017-04-22T04:45:34.216Z,74.20
2017-04-22T04:46:34.021Z,74.30
2017-04-22T04:47:33.706Z,74.40
2017-04-22T04:48:33.463Z,74.20
2017-04-22T04:49:33.203Z,74.40
2017-04-22T04:50:33.134Z,74.60
2017-04-22T04:51:33.643Z,75.30
2017-04-22T04:52:34.132Z,74.90
2017-04-22T04:53:33.900Z,74.30
2017-04-22T04:54:34.092Z,74.30
2017-04-22T04:55:34.557Z,74.50
2017-04-22T04:56:34.287Z,74.30
2017-04-22T04:57:34.081Z,74.00
2017-04-22T04:59:34.582Z,73.80
2017-04-22T05:00:34.292Z,73.90
2017-04-22T05:01:34.070Z,73.90
2017-04-22T05:02:33.819Z,73.90
2017-04-22T05:03:33.564Z,74.00
2017-04-22T05:04:33.293Z,73.90
2017-04-22T05:05:33.025Z,74.00
2017-04-22T05:06:32.844Z,73.70
2017-04-22T05:07:33.298Z,74.00
2017-04-22T05:08:33.127Z,73.90
2017-04-22T05:09:32.866Z,74.20
2017-04-22T05:10:33.335Z,74.00
2017-04-22T05:11:33.058Z,73.70
2017-04-22T05:12:33.108Z,73.60
2017-04-22T05:13:32.820Z,73.50
2017-04-22T05:14:32.592Z,73.20
2017-04-22T05:15:33.027Z,73.20
2017-04-22T05:16:32.761Z,73.50
2017-04-22T05:17:32.497Z,73.30
2017-04-22T05:19:32.195Z,73.40
2017-04-22T05:20:31.914Z,73.00
2017-04-22T05:21:32.440Z,72.50
2017-04-22T05:22:33.097Z,72.40
2017-04-22T05:23:32.851Z,72.70
2017-04-22T05:24:32.811Z,72.80
2017-04-22T05:25:32.717Z,73.10
2017-04-22T05:26:36.174Z,73.70
2017-04-22T05:27:36.888Z,72.50
2017-04-22T05:28:37.407Z,72.10
2017-04-22T05:29:38.556Z,72.00
2017-04-22T05:30:38.334Z,71.70
2017-04-22T05:31:38.791Z,72.80
2017-04-22T05:32:38.515Z,71.40
2017-04-22T05:33:38.275Z,72.90
2017-04-22T05:34:38.096Z,71.80
2017-04-22T05:35:37.844Z,70.90
2017-04-22T05:36:37.547Z,72.80
2017-04-22T05:37:37.318Z,72.40
2017-04-22T05:38:37.095Z,70.80
2017-04-22T05:39:37.043Z,70.40
2017-04-22T05:40:36.852Z,70.50
2017-04-22T05:41:36.687Z,71.10
2017-04-22T05:42:37.165Z,70.00
2017-04-22T05:43:36.863Z,70.30
2017-04-22T05:44:36.643Z,72.70
2017-04-22T05:45:36.432Z,69.70
2017-04-22T05:46:36.191Z,69.40
2017-04-22T05:47:35.954Z,70.00
2017-04-22T05:48:35.707Z,70.00
2017-04-22T05:49:36.148Z,69.70
2017-04-22T05:50:35.969Z,69.70
2017-04-22T05:51:35.773Z,68.60
2017-04-22T05:52:35.599Z,70.30
2017-04-22T05:53:35.360Z,69.80
2017-04-22T05:54:35.103Z,70.30
2017-04-22T05:55:34.840Z,68.80
2017-04-22T05:56:35.332Z,69.70
2017-04-22T05:57:35.059Z,69.50
2017-04-22T05:58:35.535Z,69.40
2017-04-22T05:59:35.292Z,69.90
2017-04-22T06:00:35.163Z,70.30
2017-04-22T06:01:34.961Z,69.40
2017-04-22T06:02:34.680Z,69.70
2017-04-22T06:03:35.180Z,70.10
2017-04-22T06:04:34.915Z,69.90
2017-04-22T06:05:34.647Z,69.40
2017-04-22T06:06:34.657Z,69.20
2017-04-22T06:07:34.429Z,69.00
2017-04-22T06:08:34.181Z,69.10
2017-04-22T06:09:33.929Z,69.20
2017-04-22T06:10:33.685Z,68.60
2017-04-22T06:11:33.391Z,67.90
2017-04-22T06:13:33.157Z,67.30
2017-04-22T06:14:32.911Z,67.20
2017-04-22T06:15:33.357Z,67.20
2017-04-22T06:16:33.178Z,67.30
2017-04-22T06:17:32.899Z,67.30
2017-04-22T06:18:32.634Z,67.00
2017-04-22T06:19:33.146Z,66.90
2017-04-22T06:20:32.847Z,66.80
2017-04-22T06:21:32.569Z,67.00
2017-04-22T06:22:32.298Z,66.60
2017-04-22T06:23:32.218Z,66.20
2017-04-22T06:24:31.944Z,66.40
2017-04-22T06:25:31.734Z,66.10
2017-04-22T06:26:31.457Z,66.50
2017-04-22T06:27:31.948Z,66.00
2017-04-22T06:28:32.030Z,66.60
2017-04-22T06:29:31.941Z,65.60
2017-04-22T06:30:31.685Z,64.50
2017-04-22T06:31:32.158Z,63.70
2017-04-22T06:32:31.871Z,63.00
2017-04-22T06:33:31.629Z,62.60
2017-04-22T06:34:32.105Z,62.40
2017-04-22T06:35:31.899Z,62.30
2017-04-22T06:36:31.613Z,62.20
2017-04-22T06:37:31.360Z,62.40
2017-04-22T06:38:31.118Z,62.90
2017-04-22T06:39:30.860Z,62.10
2017-04-22T06:40:30.592Z,61.60
2017-04-22T06:41:30.315Z,61.10
2017-04-22T06:42:30.131Z,60.90
2017-04-22T06:43:30.580Z,60.20
2017-04-22T06:44:30.288Z,60.40
2017-04-22T06:45:30.020Z,60.70
2017-04-22T06:46:29.765Z,61.00
2017-04-22T06:47:30.253Z,61.00
2017-04-22T06:48:30.056Z,60.80
2017-04-22T06:49:31.464Z,61.00
2017-04-22T06:50:31.189Z,60.90
2017-04-22T06:51:30.939Z,61.20
2017-04-22T06:52:31.469Z,61.10
2017-04-22T06:53:31.167Z,60.60
2017-04-22T06:54:30.898Z,60.20
2017-04-22T06:55:30.630Z,60.40
2017-04-22T06:56:30.433Z,60.60
2017-04-22T06:57:30.128Z,60.30
2017-04-22T06:58:29.888Z,60.60
2017-04-22T06:59:30.492Z,60.40
2017-04-22T07:00:30.202Z,59.20
2017-04-22T07:01:29.912Z,58.60
2017-04-22T07:02:37.459Z,58.40
2017-04-22T07:03:37.971Z,58.20
2017-04-22T07:04:37.675Z,58.50
2017-04-22T07:05:38.116Z,58.70
2017-04-22T07:06:38.025Z,58.90
2017-04-22T07:07:37.748Z,59.00
2017-04-22T07:08:37.473Z,59.20
2017-04-22T07:09:37.199Z,59.50
2017-04-22T07:10:37.653Z,59.80
2017-04-22T07:11:37.364Z,59.70
2017-04-22T07:12:37.072Z,59.50
2017-04-22T07:13:36.804Z,60.00
2017-04-22T07:15:36.523Z,59.60
2017-04-22T07:16:36.991Z,59.30
2017-04-22T07:17:36.827Z,59.00
2017-04-22T07:18:36.547Z,58.30
2017-04-22T07:19:37.045Z,58.70
2017-04-22T07:20:36.751Z,58.50
2017-04-22T07:21:37.203Z,58.80
2017-04-22T07:22:36.909Z,56.40
2017-04-22T07:23:36.637Z,55.80
2017-04-22T07:24:36.354Z,56.10
2017-04-22T07:25:36.071Z,56.40
2017-04-22T07:26:36.532Z,56.30
2017-04-22T07:27:36.312Z,56.00
2017-04-22T07:28:36.761Z,55.50
2017-04-22T07:29:36.659Z,54.20
2017-04-22T07:30:36.383Z,54.20
2017-04-22T07:31:36.119Z,54.80
2017-04-22T07:32:36.551Z,55.00
2017-04-22T07:33:37.024Z,55.20
2017-04-22T07:34:36.711Z,55.10
2017-04-22T07:35:36.464Z,55.40
2017-04-22T07:36:36.933Z,55.70
2017-04-22T07:37:36.638Z,56.00
2017-04-22T07:38:36.353Z,55.80
2017-04-22T07:39:36.037Z,55.70
2017-04-22T07:40:35.756Z,55.80
2017-04-22T07:41:35.480Z,55.30
2017-04-22T07:42:35.232Z,55.50
2017-04-22T07:43:35.678Z,55.70
2017-04-22T07:44:35.569Z,54.40
2017-04-22T07:45:35.281Z,54.30
2017-04-22T07:46:35.073Z,54.30
2017-04-22T07:47:34.921Z,54.10
2017-04-22T07:48:34.614Z,54.60
2017-04-22T07:49:34.487Z,53.80
2017-04-22T07:50:34.198Z,54.10
2017-04-22T07:51:33.906Z,53.90
2017-04-22T07:52:33.647Z,53.80
2017-04-22T07:53:33.350Z,53.90
2017-04-22T07:54:33.819Z,54.00
2017-04-22T07:55:33.562Z,53.90
2017-04-22T07:56:33.263Z,54.10
2017-04-22T07:57:33.011Z,53.40
2017-04-22T07:58:32.731Z,53.10
2017-04-22T07:59:32.510Z,53.40
2017-04-22T08:00:32.204Z,53.00
2017-04-22T08:01:31.912Z,53.20
2017-04-22T08:02:31.679Z,53.60
2017-04-22T08:03:31.401Z,53.40
2017-04-22T08:04:31.417Z,53.90
2017-04-22T08:05:31.130Z,53.80
2017-04-22T08:06:30.924Z,53.90
2017-04-22T08:07:30.644Z,53.90
2017-04-22T08:08:30.345Z,54.10
2017-04-22T08:09:30.064Z,54.20
2017-04-22T08:10:30.681Z,54.10
2017-04-22T08:11:30.376Z,53.90
2017-04-22T08:12:30.821Z,54.50
2017-04-22T08:13:30.516Z,54.70
2017-04-22T08:14:30.212Z,54.90
2017-04-22T08:15:29.986Z,55.00
2017-04-22T08:16:29.752Z,54.60
2017-04-22T08:17:29.480Z,54.20
2017-04-22T08:18:29.229Z,54.00
2017-04-22T08:19:29.076Z,54.10
2017-04-22T08:20:28.813Z,54.40
2017-04-22T08:21:28.553Z,52.90
2017-04-22T08:22:28.991Z,53.30
2017-04-22T08:23:28.733Z,53.50
2017-04-22T08:24:28.463Z,53.90
2017-04-22T08:25:28.161Z,53.30
2017-04-22T08:26:27.918Z,53.30
2017-04-22T08:27:27.672Z,53.50
2017-04-22T08:28:28.141Z,53.40
2017-04-22T08:29:27.921Z,53.20
2017-04-22T08:30:27.636Z,53.60
2017-04-22T08:31:27.355Z,54.20
2017-04-22T08:32:27.105Z,54.00
2017-04-22T08:33:26.804Z,55.00
2017-04-22T08:34:26.589Z,55.30
2017-04-22T08:35:27.075Z,55.20
2017-04-22T08:36:26.797Z,55.50
2017-04-22T08:37:26.520Z,55.90
2017-04-22T08:38:26.244Z,56.90
2017-04-22T08:39:25.973Z,57.40
2017-04-22T08:40:25.681Z,58.00
2017-04-22T08:41:25.392Z,58.40
2017-04-22T08:42:25.096Z,58.40
2017-04-22T08:43:24.816Z,57.70
2017-04-22T08:44:24.567Z,58.00
2017-04-22T08:45:25.017Z,58.60
2017-04-22T08:46:24.774Z,58.90
2017-04-22T08:47:25.286Z,58.60
2017-04-22T08:48:25.008Z,58.90
2017-04-22T08:49:24.850Z,59.60
2017-04-22T08:50:24.556Z,60.00
2017-04-22T08:51:24.290Z,60.70
2017-04-22T08:52:23.984Z,61.50
2017-04-22T08:53:23.709Z,60.20
2017-04-22T08:54:24.204Z,60.60
2017-04-22T08:55:24.008Z,58.80
2017-04-22T08:56:23.708Z,58.50
2017-04-22T08:57:23.436Z,58.30
2017-04-22T08:58:23.150Z,57.40
2017-04-22T08:59:22.874Z,58.30
2017-04-22T09:00:22.634Z,58.10
2017-04-22T09:01:22.352Z,58.50
2017-04-22T09:02:22.055Z,57.70
2017-04-22T09:03:21.824Z,57.30
2017-04-22T09:04:21.529Z,56.80
2017-04-22T09:05:21.989Z,56.20
2017-04-22T09:06:21.714Z,55.00
2017-04-22T09:07:21.409Z,54.50
2017-04-22T09:08:21.109Z,54.70
2017-04-22T09:09:20.849Z,54.70
2017-04-22T09:10:21.340Z,54.40
2017-04-22T09:11:21.072Z,53.80
2017-04-22T09:12:21.528Z,53.20
2017-04-22T09:13:21.259Z,53.50
2017-04-22T09:14:20.971Z,53.50
2017-04-22T09:15:20.671Z,54.00
2017-04-22T09:16:20.382Z,53.40
2017-04-22T09:17:20.899Z,53.30
2017-04-22T09:18:21.350Z,53.20
2017-04-22T09:19:21.050Z,51.40
2017-04-22T09:20:20.769Z,51.10
2017-04-22T09:21:20.466Z,50.90
2017-04-22T09:22:20.251Z,49.70
2017-04-22T09:23:20.004Z,49.90
2017-04-22T09:24:19.733Z,48.50
2017-04-22T09:25:19.483Z,48.00
2017-04-22T09:26:19.194Z,48.70
2017-04-22T09:27:18.915Z,48.50
2017-04-22T09:28:19.371Z,48.40
2017-04-22T09:29:19.116Z,49.00
2017-04-22T09:30:18.840Z,50.00
2017-04-22T09:31:19.284Z,51.50
2017-04-22T09:32:19.008Z,51.60
2017-04-22T09:33:18.718Z,52.40
2017-04-22T09:34:18.470Z,52.80
2017-04-22T09:35:18.229Z,53.00
2017-04-22T09:36:17.923Z,53.60
2017-04-22T09:37:18.369Z,53.80
2017-04-22T09:38:18.134Z,53.80
2017-04-22T09:39:18.611Z,54.60
2017-04-22T09:40:18.349Z,54.40
2017-04-22T09:41:18.092Z,54.70
2017-04-22T09:42:17.815Z,54.40
2017-04-22T09:43:17.568Z,55.10
2017-04-22T09:44:17.394Z,55.60
2017-04-22T09:45:17.113Z,54.90
2017-04-22T09:46:16.846Z,55.80
2017-04-22T09:47:16.582Z,56.10
2017-04-22T09:48:16.325Z,56.10
2017-04-22T09:49:16.835Z,56.70
2017-04-22T09:50:16.547Z,56.50
2017-04-22T09:51:17.045Z,56.90
2017-04-22T09:52:16.752Z,55.90
2017-04-22T09:53:16.487Z,56.60
2017-04-22T09:54:16.246Z,56.50
2017-04-22T09:55:15.953Z,56.60
2017-04-22T09:56:15.728Z,56.40
2017-04-22T09:57:15.461Z,55.80
2017-04-22T09:58:15.158Z,55.50
2017-04-22T09:59:14.867Z,52.50
2017-04-22T10:00:15.340Z,53.70
2017-04-22T10:01:15.060Z,53.70
2017-04-22T10:02:14.786Z,53.40
2017-04-22T10:03:15.262Z,53.50
2017-04-22T10:04:15.003Z,51.90
2017-04-22T10:05:15.456Z,52.80
2017-04-22T10:06:15.147Z,52.30
2017-04-22T10:07:14.898Z,52.40
2017-04-22T10:08:14.629Z,52.50
2017-04-22T10:09:15.068Z,52.60
2017-04-22T10:10:14.780Z,52.10
2017-04-22T10:11:14.496Z,50.10
2017-04-22T10:12:14.238Z,51.00
2017-04-22T10:13:14.033Z,51.10
2017-04-22T10:14:13.775Z,51.00
2017-04-22T10:15:13.493Z,51.30
2017-04-22T10:16:13.207Z,51.10
2017-04-22T10:17:12.951Z,49.60
2017-04-22T10:18:12.706Z,49.60
2017-04-22T10:19:12.428Z,48.40
2017-04-22T10:20:12.201Z,48.70
2017-04-22T10:21:11.890Z,48.20
2017-04-22T10:22:11.637Z,48.00
2017-04-22T10:23:11.343Z,48.00
2017-04-22T10:24:11.040Z,48.00
2017-04-22T10:25:10.834Z,47.90
2017-04-22T10:26:10.548Z,48.30
2017-04-22T10:27:10.257Z,49.20
2017-04-22T10:28:10.712Z,47.80
2017-04-22T10:29:10.398Z,47.70
2017-04-22T10:30:10.111Z,48.00
2017-04-22T10:31:09.829Z,47.50
2017-04-22T10:32:09.633Z,47.60
2017-04-22T10:33:09.755Z,47.60
2017-04-22T10:34:09.503Z,47.80
2017-04-22T10:35:09.366Z,48.20
2017-04-22T10:36:09.143Z,48.40
2017-04-22T10:37:08.925Z,48.90
2017-04-22T10:38:08.648Z,48.90
2017-04-22T10:39:09.005Z,49.50
2017-04-22T10:40:09.508Z,48.90
2017-04-22T10:41:10.089Z,47.90
2017-04-22T10:42:09.847Z,48.30
2017-04-22T10:43:09.649Z,48.70
2017-04-22T10:44:09.404Z,49.40
2017-04-22T10:46:09.513Z,45.90
2017-04-22T10:47:09.288Z,45.30
2017-04-22T10:48:09.071Z,44.70
2017-04-22T10:49:09.565Z,44.90
2017-04-22T10:51:10.308Z,42.80
2017-04-22T10:52:10.080Z,42.60
2017-04-22T10:53:11.176Z,43.10
2017-04-22T10:54:11.635Z,45.00
2017-04-22T10:55:11.490Z,45.10
2017-04-22T10:56:11.943Z,45.90
2017-04-22T10:57:12.709Z,45.70
2017-04-22T10:58:13.297Z,46.00
2017-04-22T10:59:13.217Z,46.20
2017-04-22T11:00:12.978Z,46.10
2017-04-22T11:01:12.738Z,45.80
2017-04-22T11:02:12.450Z,46.30
2017-04-22T11:03:12.933Z,46.90
2017-04-22T11:04:12.645Z,47.30
2017-04-22T11:05:12.353Z,47.60
2017-04-22T11:06:12.141Z,47.80
2017-04-22T11:07:11.945Z,48.00
2017-04-22T11:08:11.659Z,47.30
2017-04-22T11:09:12.161Z,46.90
2017-04-22T11:10:11.892Z,46.70
2017-04-22T11:11:12.343Z,47.00
2017-04-22T11:12:12.081Z,48.20
2017-04-22T11:13:11.793Z,46.50
2017-04-22T11:14:11.505Z,46.50
2017-04-22T11:15:11.961Z,46.20
2017-04-22T11:16:11.713Z,47.50
2017-04-22T11:17:11.453Z,46.70
2017-04-22T11:18:11.233Z,46.70
2017-04-22T11:19:11.666Z,46.70
2017-04-22T11:20:11.412Z,46.90
2017-04-22T11:21:11.151Z,46.10
2017-04-22T11:22:11.604Z,46.70
2017-04-22T11:23:11.363Z,46.70
2017-04-22T11:24:11.990Z,46.60
2017-04-22T11:25:11.697Z,45.20
2017-04-22T11:26:12.157Z,44.70
2017-04-22T11:27:11.873Z,44.50
2017-04-22T11:28:11.631Z,44.20
2017-04-22T11:29:11.988Z,44.30
2017-04-22T11:30:11.757Z,43.50
2017-04-22T11:31:11.491Z,42.10
2017-04-22T11:32:11.216Z,41.70
2017-04-22T11:33:11.014Z,41.50
2017-04-22T11:34:10.735Z,41.80
2017-04-22T11:35:10.458Z,42.20
2017-04-22T11:36:10.185Z,41.60
2017-04-22T11:37:10.645Z,41.80
2017-04-22T11:38:10.358Z,41.80
2017-04-22T11:39:10.078Z,42.10
2017-04-22T11:40:09.793Z,42.90
2017-04-22T11:41:09.512Z,43.00
2017-04-22T11:42:10.085Z,43.90
2017-04-22T11:43:09.788Z,41.60
2017-04-22T11:44:09.521Z,41.20
2017-04-22T11:45:09.207Z,40.50
2017-04-22T11:46:08.930Z,40.70
2017-04-22T11:47:09.406Z,41.40
2017-04-22T11:48:09.143Z,41.00
2017-04-22T11:49:09.634Z,41.20
2017-04-22T11:50:09.345Z,41.30
2017-04-22T11:51:09.058Z,40.60
2017-04-22T11:52:09.525Z,39.60
2017-04-22T11:53:09.305Z,38.90
2017-04-22T11:54:09.024Z,38.80
2017-04-22T11:55:08.755Z,39.40
2017-04-22T11:56:08.454Z,40.10
2017-04-22T11:57:08.159Z,40.10
2017-04-22T11:59:07.821Z,40.20
2017-04-22T12:00:07.562Z,40.10
2017-04-22T12:01:07.286Z,39.90
2017-04-22T12:02:07.742Z,40.30
2017-04-22T12:03:07.464Z,40.10
2017-04-22T12:04:07.208Z,39.80
2017-04-22T12:05:07.681Z,40.10
2017-04-22T12:06:07.412Z,39.70
2017-04-22T12:07:07.123Z,39.30
2017-04-22T12:08:07.594Z,39.50
2017-04-22T12:09:07.295Z,39.20
2017-04-22T12:10:10.270Z,39.30
2017-04-22T12:11:10.075Z,39.60
2017-04-22T12:12:11.527Z,39.80
2017-04-22T12:13:11.245Z,40.00
2017-04-22T12:14:10.969Z,40.20
2017-04-22T12:15:11.449Z,39.30
2017-04-22T12:16:11.188Z,38.10
2017-04-22T12:17:11.672Z,37.60
2017-04-22T12:18:11.389Z,37.60
2017-04-22T12:19:11.094Z,37.20
2017-04-22T12:20:10.813Z,37.90
2017-04-22T12:21:11.338Z,38.30
2017-04-22T12:22:11.058Z,38.70
2017-04-22T12:23:10.757Z,38.50
2017-04-22T12:24:10.500Z,38.40
2017-04-22T12:25:11.044Z,37.30
2017-04-22T12:26:10.817Z,37.50
2017-04-22T12:27:11.292Z,39.00
2017-04-22T12:28:11.027Z,38.90
2017-04-22T12:29:11.620Z,39.00
2017-04-22T12:30:11.347Z,38.40
2017-04-22T12:31:11.802Z,38.80
2017-04-22T12:32:11.539Z,39.30
2017-04-22T12:33:11.271Z,39.80
2017-04-22T12:34:11.743Z,39.80
2017-04-22T12:35:11.455Z,39.50
2017-04-22T12:36:11.181Z,39.50
2017-04-22T12:37:10.928Z,40.00
2017-04-22T12:38:10.669Z,39.40
2017-04-22T12:39:10.398Z,39.60
2017-04-22T12:40:10.838Z,39.20
2017-04-22T12:41:10.554Z,39.60
2017-04-22T12:42:10.281Z,40.00
2017-04-22T12:43:10.049Z,40.30
2017-04-22T12:44:09.796Z,40.30
2017-04-22T12:45:09.512Z,40.30
2017-04-22T12:46:10.616Z,40.20
2017-04-22T12:47:10.429Z,40.40
2017-04-22T12:48:10.180Z,41.30
2017-04-22T12:49:09.896Z,41.60
2017-04-22T12:50:09.609Z,41.50
2017-04-22T12:51:09.308Z,41.90
2017-04-22T12:52:09.021Z,41.70
2017-04-22T12:53:08.732Z,41.90
2017-04-22T12:54:08.495Z,42.10
2017-04-22T12:55:08.205Z,41.90
2017-04-22T12:56:07.914Z,41.60
2017-04-22T12:57:07.631Z,41.10
2017-04-22T12:58:07.350Z,41.20
2017-04-22T12:59:07.810Z,41.20